createdAt,value
2024-02-06T00:00:19.577Z,99.90
2024-02-06T00:02:50.310Z,99.90
2024-02-06T00:05:19.058Z,99.90
2024-02-06T00:07:47.667Z,99.90
2024-02-06T00:10:16.227Z,99.90
2024-02-06T00:12:44.632Z,99.90
2024-02-06T00:15:13.149Z,99.90
2024-02-06T00:17:41.481Z,99.90
2024-02-06T00:20:12.450Z,99.90
2024-02-06T00:22:40.981Z,99.90
2024-02-06T00:25:09.973Z,99.90
2024-02-06T00:27:38.355Z,99.90
2024-02-06T00:30:08.291Z,99.90
2024-02-06T00:32:36.817Z,99.90
2024-02-06T00:35:06.053Z,99.90
2024-02-06T00:37:35.929Z,99.90
2024-02-06T00:40:04.707Z,99.90
2024-02-06T00:42:33.088Z,99.90
2024-02-06T00:45:02.583Z,99.90
2024-02-06T00:47:31.000Z,99.90
2024-02-06T00:49:59.435Z,99.90
2024-02-06T00:52:28.108Z,99.90
2024-02-06T00:54:58.189Z,99.90
2024-02-06T00:57:26.532Z,99.90
2024-02-06T00:59:54.912Z,99.90
2024-02-06T01:02:24.278Z,99.90
2024-02-06T01:04:52.884Z,99.90
2024-02-06T01:07:22.050Z,99.90
2024-02-06T01:09:50.560Z,99.90
2024-02-06T01:12:20.762Z,99.90
2024-02-06T01:14:49.202Z,99.90
2024-02-06T01:17:17.577Z,99.90
2024-02-06T01:19:46.108Z,99.90
2024-02-06T01:22:14.877Z,99.90
2024-02-06T01:24:43.447Z,99.90
2024-02-06T01:27:12.478Z,99.90
2024-02-06T01:29:42.389Z,99.90
2024-02-06T01:32:10.782Z,99.90
2024-02-06T01:34:39.483Z,99.90
2024-02-06T01:37:08.131Z,99.90
2024-02-06T01:39:36.608Z,99.90
2024-02-06T01:42:05.755Z,99.90
2024-02-06T01:44:34.286Z,99.90
2024-02-06T01:47:04.868Z,99.90
2024-02-06T01:49:33.714Z,99.90
2024-02-06T01:52:02.709Z,99.90
2024-02-06T01:54:31.396Z,99.90
2024-02-06T01:57:00.412Z,99.90
2024-02-06T01:59:29.262Z,99.90
2024-02-06T02:01:58.497Z,99.90
2024-02-06T02:04:28.570Z,99.90
2024-02-06T02:06:57.639Z,99.90
2024-02-06T02:09:26.320Z,99.90
2024-02-06T02:11:54.788Z,99.90
2024-02-06T02:14:23.469Z,99.90
2024-02-06T02:16:52.075Z,99.90
2024-02-06T02:19:20.711Z,99.90
2024-02-06T02:21:50.874Z,99.90
2024-02-06T02:24:20.976Z,99.90
2024-02-06T02:26:49.972Z,99.90
2024-02-06T02:29:20.298Z,99.90
2024-02-06T02:31:50.103Z,99.90
2024-02-06T02:34:18.921Z,99.90
2024-02-06T02:36:47.365Z,99.90
2024-02-06T02:39:17.338Z,99.90
2024-02-06T02:41:45.736Z,99.90
2024-02-06T02:44:14.098Z,99.90
2024-02-06T02:46:42.398Z,99.90
2024-02-06T02:49:11.048Z,99.90
2024-02-06T02:51:39.448Z,99.90
2024-02-06T02:54:08.030Z,99.90
2024-02-06T02:56:37.733Z,99.90
2024-02-06T02:59:06.493Z,99.90
2024-02-06T03:01:34.995Z,99.90
2024-02-06T03:04:03.668Z,99.90
2024-02-06T03:06:32.122Z,99.90
2024-02-06T03:09:03.238Z,99.90
2024-02-06T03:11:32.046Z,99.90
2024-02-06T03:14:01.767Z,99.90
2024-02-06T03:16:30.119Z,99.90
2024-02-06T03:18:58.650Z,99.90
2024-02-06T03:21:27.089Z,99.90
2024-02-06T03:23:55.480Z,99.90
2024-02-06T03:26:23.868Z,99.90
2024-02-06T03:28:52.655Z,99.90
2024-02-06T03:31:22.740Z,99.90
2024-02-06T03:33:51.194Z,99.90
2024-02-06T03:36:19.606Z,99.90
2024-02-06T03:38:48.104Z,99.90
2024-02-06T03:41:16.626Z,99.90
2024-02-06T03:43:45.521Z,99.90
2024-02-06T03:46:13.987Z,99.90
2024-02-06T03:48:44.003Z,99.90
2024-02-06T03:51:12.484Z,99.90
2024-02-06T03:53:41.091Z,99.90
2024-02-06T03:56:09.982Z,99.90
2024-02-06T03:58:39.953Z,99.90
2024-02-06T04:01:08.499Z,99.90
2024-02-06T04:03:37.134Z,99.90
2024-02-06T04:06:07.860Z,99.90
2024-02-06T04:08:36.344Z,99.90
2024-02-06T04:11:06.072Z,99.90
2024-02-06T04:13:34.640Z,99.90
2024-02-06T04:16:04.017Z,99.90
2024-02-06T04:18:32.892Z,99.90
2024-02-06T04:21:01.641Z,99.90
2024-02-06T04:23:31.413Z,99.90
2024-02-06T04:25:59.895Z,99.90
2024-02-06T04:28:28.392Z,99.90
2024-02-06T04:30:56.893Z,99.90
2024-02-06T04:33:25.599Z,99.90
2024-02-06T04:35:54.580Z,99.90
2024-02-06T04:38:23.006Z,99.90
2024-02-06T04:40:52.920Z,99.90
2024-02-06T04:43:23.769Z,99.90
2024-02-06T04:45:52.476Z,99.90
2024-02-06T04:48:20.954Z,99.90
2024-02-06T04:50:49.443Z,99.90
2024-02-06T04:53:18.160Z,99.90
2024-02-06T04:55:46.951Z,99.90
2024-02-06T04:58:16.935Z,99.90
2024-02-06T05:00:45.757Z,99.90
2024-02-06T05:03:14.448Z,99.90
2024-02-06T05:05:43.004Z,99.90
2024-02-06T05:08:11.742Z,99.90
2024-02-06T05:10:41.046Z,99.90
2024-02-06T05:13:09.888Z,99.90
2024-02-06T05:15:39.940Z,99.90
2024-02-06T05:18:08.889Z,99.90
2024-02-06T05:20:37.402Z,99.90
2024-02-06T05:23:06.228Z,99.90
2024-02-06T05:25:35.101Z,99.90
2024-02-06T05:28:03.650Z,99.90
2024-02-06T05:30:33.835Z,99.90
2024-02-06T05:33:03.914Z,99.90
2024-02-06T05:35:32.598Z,99.90
2024-02-06T05:38:01.832Z,99.90
2024-02-06T05:40:31.194Z,99.90
2024-02-06T05:42:59.740Z,99.90
2024-02-06T05:45:28.268Z,99.90
2024-02-06T05:48:00.818Z,99.90
2024-02-06T05:50:32.176Z,99.90
2024-02-06T05:53:00.853Z,99.90
2024-02-06T05:55:30.543Z,99.90
2024-02-06T05:57:59.273Z,99.90
2024-02-06T06:00:28.798Z,99.90
2024-02-06T06:02:57.383Z,99.90
2024-02-06T06:05:26.356Z,99.90
2024-02-06T06:07:56.456Z,99.90
2024-02-06T06:10:25.060Z,99.90
2024-02-06T06:13:26.172Z,99.90
2024-02-06T06:16:33.648Z,99.90
2024-02-06T06:19:16.280Z,99.90
2024-02-06T06:25:33.331Z,99.90
2024-02-06T06:28:11.224Z,99.90
2024-02-06T06:30:47.032Z,99.90
2024-02-06T06:33:22.443Z,99.90
2024-02-06T06:39:49.804Z,99.90
2024-02-06T06:42:39.405Z,99.90
2024-02-06T06:45:44.791Z,99.90
2024-02-06T06:52:59.786Z,99.90
2024-02-06T06:55:33.664Z,99.90
2024-02-06T06:58:07.746Z,99.90
2024-02-06T07:00:37.922Z,99.90
2024-02-06T07:03:24.453Z,99.90
2024-02-06T07:06:39.804Z,99.90
2024-02-06T07:09:14.664Z,99.90
2024-02-06T07:11:44.862Z,99.90
2024-02-06T07:14:15.511Z,99.90
2024-02-06T07:16:46.275Z,99.90
2024-02-06T07:19:16.170Z,99.90
2024-02-06T07:22:09.598Z,99.90
2024-02-06T07:24:38.546Z,99.90
2024-02-06T07:27:07.575Z,99.90
2024-02-06T07:29:45.051Z,99.90
2024-02-06T07:32:14.284Z,99.90
2024-02-06T07:34:43.068Z,99.90
2024-02-06T07:37:12.661Z,99.90
2024-02-06T07:39:42.328Z,99.90
2024-02-06T07:42:12.255Z,99.90
2024-02-06T07:44:45.433Z,99.90
2024-02-06T07:47:17.103Z,99.90
2024-02-06T07:49:47.004Z,99.90
2024-02-06T07:52:15.979Z,99.90
2024-02-06T07:54:44.863Z,99.90
2024-02-06T07:57:14.416Z,99.90
2024-02-06T07:59:48.827Z,99.90
2024-02-06T08:02:20.027Z,99.90
2024-02-06T08:04:50.532Z,99.90
2024-02-06T08:07:22.834Z,99.90
2024-02-06T08:10:17.362Z,99.90
2024-02-06T08:12:49.418Z,99.90
2024-02-06T08:15:21.319Z,99.90
2024-02-06T08:17:54.261Z,99.90
2024-02-06T08:20:29.973Z,99.90
2024-02-06T08:23:00.161Z,99.90
2024-02-06T08:25:31.198Z,99.90
2024-02-06T08:28:01.291Z,99.90
2024-02-06T08:30:37.815Z,99.90
2024-02-06T08:33:09.655Z,99.90
2024-02-06T08:35:38.676Z,99.90
2024-02-06T08:38:07.473Z,99.90
2024-02-06T08:40:36.196Z,99.90
2024-02-06T08:43:06.103Z,99.90
2024-02-06T08:45:36.021Z,99.90
2024-02-06T08:48:06.061Z,99.90
2024-02-06T08:50:39.265Z,99.90
2024-02-06T08:53:12.943Z,99.90
2024-02-06T08:55:50.358Z,99.90
2024-02-06T08:58:27.577Z,99.90
2024-02-06T09:01:05.151Z,99.90
2024-02-06T09:03:36.684Z,99.90
2024-02-06T09:06:14.265Z,99.90
2024-02-06T09:08:44.727Z,99.90
2024-02-06T09:11:14.231Z,99.90
2024-02-06T09:13:42.902Z,99.90
2024-02-06T09:16:18.242Z,99.90
2024-02-06T09:18:49.993Z,99.90
2024-02-06T09:21:19.049Z,99.90
2024-02-06T09:23:49.017Z,99.90
2024-02-06T09:26:20.200Z,99.90
2024-02-06T09:28:50.496Z,99.90
2024-02-06T09:31:34.239Z,99.90
2024-02-06T09:34:19.552Z,99.90
2024-02-06T09:36:58.584Z,99.90
2024-02-06T09:39:30.299Z,99.90
2024-02-06T09:42:31.129Z,99.90
2024-02-06T09:45:15.208Z,99.90
2024-02-06T09:48:16.474Z,99.90
2024-02-06T09:50:49.892Z,99.90
2024-02-06T09:54:06.172Z,99.90
2024-02-06T09:56:38.227Z,99.90
2024-02-06T09:59:14.083Z,99.90
2024-02-06T10:05:05.445Z,99.90
2024-02-06T10:07:41.919Z,99.90
2024-02-06T10:18:23.925Z,99.90
2024-02-06T10:20:59.165Z,99.90
2024-02-06T10:31:43.390Z,99.90
2024-02-06T10:34:36.085Z,99.90
2024-02-06T10:40:15.435Z,99.90
2024-02-06T10:43:25.117Z,99.90
2024-02-06T10:45:38.459Z,99.90
2024-02-06T10:48:10.816Z,99.90
2024-02-06T10:55:15.204Z,99.90
2024-02-06T10:57:55.214Z,99.90
2024-02-06T11:00:37.227Z,99.90
2024-02-06T11:03:14.565Z,99.90
2024-02-06T11:06:29.767Z,99.90
2024-02-06T11:09:16.218Z,99.90
2024-02-06T11:11:54.615Z,99.90
2024-02-06T11:14:32.405Z,99.90
2024-02-06T11:17:43.551Z,99.90
2024-02-06T11:20:22.499Z,99.90
2024-02-06T11:23:03.935Z,99.90
2024-02-06T11:26:22.703Z,99.90
2024-02-06T11:29:38.076Z,99.90
2024-02-06T11:32:58.047Z,99.90
2024-02-06T11:36:30.856Z,99.80
2024-02-06T11:43:31.121Z,99.70
2024-02-06T11:54:18.359Z,98.70
2024-02-06T11:56:47.672Z,99.00
2024-02-06T11:59:18.422Z,97.30
2024-02-06T12:01:47.539Z,96.80
2024-02-06T12:04:26.520Z,98.00
2024-02-06T12:07:06.104Z,97.60
2024-02-06T12:09:47.069Z,97.80
2024-02-06T12:12:18.837Z,97.90
2024-02-06T12:14:51.132Z,97.90
2024-02-06T12:17:47.120Z,98.50
2024-02-06T12:20:50.113Z,98.30
2024-02-06T12:23:18.838Z,97.60
2024-02-06T12:25:52.101Z,96.80
2024-02-06T12:28:20.897Z,96.40
2024-02-06T12:31:06.844Z,97.10
2024-02-06T12:33:37.063Z,97.00
2024-02-06T12:36:06.363Z,95.80
2024-02-06T12:38:35.550Z,94.60
2024-02-06T12:41:06.445Z,94.00
2024-02-06T12:43:34.987Z,93.70
2024-02-06T12:46:08.964Z,93.30
2024-02-06T12:48:37.946Z,92.70
2024-02-06T12:51:06.872Z,92.30
2024-02-06T12:53:36.579Z,91.90
2024-02-06T12:56:07.872Z,91.70
2024-02-06T12:58:37.047Z,92.40
2024-02-06T13:01:06.649Z,91.70
2024-02-06T13:03:39.459Z,91.50
2024-02-06T13:06:10.489Z,92.10
2024-02-06T13:08:47.601Z,93.00
2024-02-06T13:11:20.197Z,92.80
2024-02-06T13:13:49.725Z,92.80
2024-02-06T13:16:18.342Z,91.50
2024-02-06T13:18:56.755Z,91.50
2024-02-06T13:21:25.256Z,90.40
2024-02-06T13:23:53.648Z,90.30
2024-02-06T13:26:23.706Z,90.10
2024-02-06T13:28:59.772Z,90.00
2024-02-06T13:31:36.561Z,90.50
2024-02-06T13:34:06.330Z,92.20
2024-02-06T13:36:35.904Z,92.80
2024-02-06T13:39:10.131Z,92.40
2024-02-06T13:41:43.378Z,92.80
2024-02-06T13:44:11.827Z,93.20
2024-02-06T13:46:41.013Z,93.10
2024-02-06T13:49:09.716Z,93.20
2024-02-06T13:51:38.103Z,93.40
2024-02-06T13:54:13.303Z,94.40
2024-02-06T13:56:45.789Z,94.40
2024-02-06T13:59:14.224Z,94.20
2024-02-06T14:01:43.112Z,94.30
2024-02-06T14:04:11.801Z,94.90
2024-02-06T14:06:41.622Z,94.70
2024-02-06T14:09:13.076Z,94.90
2024-02-06T14:11:43.326Z,94.90
2024-02-06T14:14:11.782Z,95.20
2024-02-06T14:16:41.643Z,95.50
2024-02-06T14:19:10.520Z,95.60
2024-02-06T14:21:39.011Z,95.60
2024-02-06T14:24:08.795Z,96.00
2024-02-06T14:26:37.401Z,95.70
2024-02-06T14:29:07.424Z,95.70
2024-02-06T14:31:35.960Z,95.40
2024-02-06T14:34:04.542Z,93.30
2024-02-06T14:36:33.038Z,92.20
2024-02-06T14:39:01.520Z,92.00
2024-02-06T14:41:30.268Z,92.00
2024-02-06T14:43:59.088Z,92.20
2024-02-06T14:46:28.928Z,92.00
2024-02-06T14:48:57.406Z,90.80
2024-02-06T14:51:28.593Z,89.70
2024-02-06T14:53:57.303Z,89.70
2024-02-06T14:56:26.004Z,90.10
2024-02-06T14:58:54.430Z,88.90
2024-02-06T15:01:23.230Z,88.40
2024-02-06T15:03:55.960Z,88.60
2024-02-06T15:06:25.145Z,89.70
2024-02-06T15:08:56.343Z,90.60
2024-02-06T15:11:25.283Z,90.40
2024-02-06T15:13:53.668Z,90.20
2024-02-06T15:16:27.819Z,90.20
2024-02-06T15:18:57.910Z,90.10
2024-02-06T15:21:27.105Z,90.00
2024-02-06T15:23:55.567Z,88.30
2024-02-06T15:26:28.503Z,83.70
2024-02-06T15:28:57.041Z,85.40
2024-02-06T15:31:27.883Z,86.40
2024-02-06T15:34:02.069Z,85.60
2024-02-06T15:36:31.529Z,83.70
2024-02-06T15:39:00.592Z,84.70
2024-02-06T15:41:29.502Z,84.70
2024-02-06T15:43:57.998Z,84.40
2024-02-06T15:46:27.032Z,85.00
2024-02-06T15:48:55.614Z,85.80
2024-02-06T15:51:29.438Z,85.80
2024-02-06T15:54:16.158Z,86.40
2024-02-06T15:56:44.727Z,87.60
2024-02-06T15:59:13.832Z,90.20
2024-02-06T16:16:53.102Z,88.10
2024-02-06T16:19:30.276Z,85.90
2024-02-06T16:22:02.607Z,86.00
2024-02-06T16:24:32.687Z,86.40
2024-02-06T16:27:02.639Z,85.90
2024-02-06T16:29:31.479Z,86.10
2024-02-06T16:32:00.058Z,86.50
2024-02-06T16:34:38.065Z,87.10
2024-02-06T16:37:08.695Z,88.10
2024-02-06T16:39:37.115Z,90.10
2024-02-06T16:42:07.746Z,90.70
2024-02-06T16:44:43.643Z,91.20
2024-02-06T16:47:12.798Z,90.70
2024-02-06T16:49:42.109Z,89.10
2024-02-06T16:52:15.743Z,87.60
2024-02-06T16:54:47.934Z,86.40
2024-02-06T16:57:20.934Z,86.80
2024-02-06T16:59:49.498Z,86.80
2024-02-06T17:02:33.016Z,87.30
2024-02-06T17:05:10.585Z,87.50
2024-02-06T17:07:41.165Z,87.40
2024-02-06T17:10:11.844Z,87.50
2024-02-06T17:12:42.059Z,87.30
2024-02-06T17:15:14.286Z,87.70
2024-02-06T17:17:44.687Z,87.50
2024-02-06T17:20:14.246Z,86.70
2024-02-06T17:22:43.227Z,86.70
2024-02-06T17:25:12.005Z,87.30
2024-02-06T17:27:44.830Z,87.20
2024-02-06T17:30:15.978Z,86.30
2024-02-06T17:32:54.971Z,86.50
2024-02-06T17:35:51.986Z,85.60
2024-02-06T17:38:25.039Z,85.30
2024-02-06T17:40:54.078Z,85.30
2024-02-06T17:43:31.841Z,85.90
2024-02-06T17:46:02.269Z,85.50
2024-02-06T17:48:30.612Z,85.90
2024-02-06T17:51:03.057Z,85.90
2024-02-06T17:53:45.950Z,86.20
2024-02-06T17:56:16.208Z,86.10
2024-02-06T17:58:48.937Z,86.40
2024-02-06T18:01:20.514Z,86.20
2024-02-06T18:03:52.370Z,86.10
2024-02-06T18:06:21.963Z,86.10
2024-02-06T18:08:55.432Z,86.00
2024-02-06T18:11:27.968Z,85.70
2024-02-06T18:13:59.450Z,86.20
2024-02-06T18:16:42.565Z,86.60
2024-02-06T18:19:17.331Z,86.50
2024-02-06T18:22:00.177Z,86.40
2024-02-06T18:24:32.274Z,85.90
2024-02-06T18:27:07.778Z,86.60
2024-02-06T18:29:46.365Z,87.20
2024-02-06T18:32:26.764Z,87.80
2024-02-06T18:35:12.543Z,88.20
2024-02-06T18:37:51.589Z,88.10
2024-02-06T18:40:21.685Z,88.60
2024-02-06T18:42:52.895Z,88.60
2024-02-06T18:45:30.164Z,88.60
2024-02-06T18:48:01.777Z,88.90
2024-02-06T18:50:31.227Z,89.00
2024-02-06T18:53:03.699Z,89.00
2024-02-06T18:55:32.164Z,89.10
2024-02-06T18:58:01.246Z,90.00
2024-02-06T19:00:33.270Z,90.00
2024-02-06T19:03:02.330Z,90.20
2024-02-06T19:05:35.602Z,90.30
2024-02-06T19:08:08.436Z,90.20
2024-02-06T19:10:38.706Z,90.30
2024-02-06T19:13:07.236Z,90.30
2024-02-06T19:18:23.935Z,90.50
2024-02-06T19:20:55.489Z,90.70
2024-02-06T19:23:30.878Z,90.60
2024-02-06T19:25:59.307Z,91.00
2024-02-06T19:28:27.712Z,91.30
2024-02-06T19:30:57.462Z,91.20
2024-02-06T19:33:28.908Z,91.20
2024-02-06T19:35:57.934Z,91.40
2024-02-06T19:38:41.250Z,91.40
2024-02-06T19:41:10.026Z,91.40
2024-02-06T19:43:42.061Z,91.50
2024-02-06T19:46:15.217Z,91.60
2024-02-06T19:48:43.679Z,91.90
2024-02-06T19:51:13.360Z,92.00
2024-02-06T19:53:42.054Z,92.30
2024-02-06T19:56:11.921Z,92.60
2024-02-06T19:58:42.352Z,92.60
2024-02-06T20:01:18.827Z,92.60
2024-02-06T20:03:47.408Z,92.50
2024-02-06T20:06:19.649Z,93.00
2024-02-06T20:08:49.880Z,93.00
2024-02-06T20:11:20.648Z,93.00
2024-02-06T20:13:52.210Z,93.00
2024-02-06T20:16:24.577Z,92.80
2024-02-06T20:18:53.749Z,92.50
2024-02-06T20:21:35.689Z,92.60
2024-02-06T20:24:04.882Z,92.80
2024-02-06T20:26:42.054Z,93.00
2024-02-06T20:29:11.511Z,92.90
2024-02-06T20:31:46.244Z,92.60
2024-02-06T20:34:16.824Z,92.50
2024-02-06T20:36:48.450Z,92.60
2024-02-06T20:39:21.969Z,92.60
2024-02-06T20:41:52.936Z,92.80
2024-02-06T20:47:17.933Z,93.00
2024-02-06T20:49:49.747Z,93.20
2024-02-06T20:52:19.062Z,93.60
2024-02-06T20:54:49.290Z,93.80
2024-02-06T20:57:28.385Z,93.90
2024-02-06T20:59:59.622Z,93.90
2024-02-06T21:02:37.356Z,94.10
2024-02-06T21:05:08.990Z,94.40
2024-02-06T21:07:38.675Z,94.50
2024-02-06T21:10:12.440Z,94.80
2024-02-06T21:12:43.002Z,94.90
2024-02-06T21:15:11.950Z,95.30
2024-02-06T21:17:41.819Z,95.60
2024-02-06T21:20:13.687Z,95.80
2024-02-06T21:22:42.635Z,96.10
2024-02-06T21:25:11.374Z,96.60
2024-02-06T21:27:40.152Z,96.60
2024-02-06T21:30:10.883Z,96.90
2024-02-06T21:32:40.073Z,97.20
2024-02-06T21:35:11.431Z,97.50
2024-02-06T21:37:40.652Z,97.80
2024-02-06T21:40:11.563Z,98.10
2024-02-06T21:42:41.143Z,98.20
2024-02-06T21:45:11.827Z,98.50
2024-02-06T21:47:41.611Z,98.50
2024-02-06T21:50:12.013Z,98.60
2024-02-06T21:52:40.756Z,99.00
2024-02-06T21:55:13.108Z,99.10
2024-02-06T21:57:42.130Z,99.40
2024-02-06T22:00:11.747Z,99.60
2024-02-06T22:02:41.675Z,99.80
2024-02-06T22:05:12.638Z,99.90
2024-02-06T22:07:41.270Z,99.90
2024-02-06T22:10:11.283Z,99.90
2024-02-06T22:12:40.294Z,99.90
2024-02-06T22:15:09.316Z,99.90
2024-02-06T22:17:40.595Z,99.90
2024-02-06T22:20:13.424Z,99.90
2024-02-06T22:22:46.116Z,99.90
2024-02-06T22:25:16.421Z,99.90
2024-02-06T22:27:44.875Z,99.90
2024-02-06T22:30:16.206Z,99.90
2024-02-06T22:32:44.937Z,99.90
2024-02-06T22:35:18.791Z,99.90
2024-02-06T22:37:47.522Z,99.90
2024-02-06T22:40:18.661Z,99.90
2024-02-06T22:42:47.571Z,99.90
2024-02-06T22:45:16.964Z,99.90
2024-02-06T22:47:45.986Z,99.90
2024-02-06T22:50:16.285Z,99.90
2024-02-06T22:52:44.918Z,99.90
2024-02-06T22:55:13.536Z,99.90
2024-02-06T22:57:42.200Z,99.90
2024-02-06T23:00:16.872Z,99.90
2024-02-06T23:02:45.254Z,99.90
2024-02-06T23:05:14.193Z,99.90
2024-02-06T23:07:45.025Z,99.90
2024-02-06T23:10:14.012Z,99.90
2024-02-06T23:12:43.731Z,99.90
2024-02-06T23:15:13.093Z,99.90
2024-02-06T23:17:41.586Z,99.90
2024-02-06T23:20:11.974Z,99.90
2024-02-06T23:22:40.609Z,99.90
2024-02-06T23:25:11.527Z,99.90
2024-02-06T23:27:40.136Z,99.90
2024-02-06T23:30:11.137Z,99.90
2024-02-06T23:32:39.610Z,99.90
2024-02-06T23:35:08.768Z,99.90
2024-02-06T23:37:37.239Z,99.90
2024-02-06T23:40:06.725Z,99.90
2024-02-06T23:42:36.587Z,99.90
2024-02-06T23:45:05.655Z,99.90
2024-02-06T23:47:34.111Z,99.90
2024-02-06T23:50:02.735Z,99.90
2024-02-06T23:52:31.499Z,99.90
2024-02-06T23:55:00.289Z,99.90
2024-02-06T23:57:28.733Z,99.90
2024-02-06T23:59:58.637Z,99.90
